createdAt,value
2023-02-22T00:02:11.299Z,3.50
2023-02-22T00:04:46.005Z,2.95
2023-02-22T00:07:21.382Z,2.90
2023-02-22T00:09:54.030Z,2.90
2023-02-22T00:12:29.259Z,2.85
2023-02-22T00:15:01.965Z,2.58
2023-02-22T00:17:44.588Z,3.13
2023-02-22T00:20:23.502Z,2.90
2023-02-22T00:22:56.378Z,2.38
2023-02-22T00:25:38.313Z,2.58
2023-02-22T00:28:15.278Z,3.30
2023-02-22T00:30:48.310Z,3.15
2023-02-22T00:33:21.107Z,2.42
2023-02-22T00:35:53.730Z,2.70
2023-02-22T00:38:28.620Z,3.08
2023-02-22T00:41:13.516Z,3.45
2023-02-22T00:43:55.479Z,2.55
2023-02-22T00:46:43.055Z,2.55
2023-02-22T00:49:17.097Z,3.42
2023-02-22T00:51:49.999Z,3.13
2023-02-22T00:54:22.625Z,2.97
2023-02-22T00:56:58.266Z,3.25
2023-02-22T00:59:34.425Z,3.08
2023-02-22T01:02:07.074Z,3.08
2023-02-22T01:04:45.147Z,3.13
2023-02-22T01:07:30.234Z,2.95
2023-02-22T01:10:22.272Z,3.67
2023-02-22T01:12:57.805Z,3.00
2023-02-22T01:15:30.944Z,3.55
2023-02-22T01:18:18.113Z,2.53
2023-02-22T01:21:07.022Z,3.25
2023-02-22T01:23:39.660Z,2.92
2023-02-22T01:26:12.299Z,2.80
2023-02-22T01:28:44.946Z,3.28
2023-02-22T01:31:17.876Z,3.53
2023-02-22T01:33:51.270Z,3.95
2023-02-22T01:36:23.957Z,4.77
2023-02-22T01:38:56.521Z,3.38
2023-02-22T01:41:29.079Z,3.58
2023-02-22T01:44:17.586Z,4.15
2023-02-22T01:46:50.341Z,4.55
2023-02-22T01:49:29.243Z,4.32
2023-02-22T01:52:11.299Z,4.13
2023-02-22T01:55:05.558Z,4.60
2023-02-22T01:57:47.813Z,3.47
2023-02-22T02:00:36.114Z,4.00
2023-02-22T02:03:18.235Z,4.45
2023-02-22T02:05:54.142Z,4.35
2023-02-22T02:09:11.187Z,4.82
2023-02-22T02:11:45.927Z,5.30
2023-02-22T02:14:18.599Z,5.15
2023-02-22T02:16:56.231Z,4.90
2023-02-22T02:20:18.439Z,5.40
2023-02-22T02:23:21.037Z,6.00
2023-02-22T02:26:12.636Z,5.78
2023-02-22T02:29:15.981Z,6.47
2023-02-22T02:32:03.454Z,5.80
2023-02-22T02:34:51.201Z,5.93
2023-02-22T02:37:47.125Z,5.70
2023-02-22T02:40:32.882Z,6.18
2023-02-22T02:43:26.406Z,5.53
2023-02-22T02:46:09.628Z,5.75
2023-02-22T02:48:54.756Z,6.05
2023-02-22T02:51:42.177Z,5.75
2023-02-22T02:54:16.043Z,5.43
2023-02-22T02:56:48.996Z,6.15
2023-02-22T02:59:37.366Z,6.82
2023-02-22T03:02:44.370Z,7.13
2023-02-22T03:05:57.739Z,5.80
2023-02-22T03:08:45.133Z,4.97
2023-02-22T03:11:23.988Z,5.93
2023-02-22T03:14:08.670Z,5.72
2023-02-22T03:17:07.247Z,6.63
2023-02-22T03:19:52.632Z,5.95
2023-02-22T03:22:44.141Z,6.55
2023-02-22T03:25:37.711Z,5.70
2023-02-22T03:28:17.213Z,5.80
2023-02-22T03:31:10.413Z,4.45
2023-02-22T03:33:54.570Z,4.70
2023-02-22T03:36:42.132Z,5.30
2023-02-22T03:39:36.796Z,5.13
2023-02-22T03:42:32.014Z,5.45
2023-02-22T03:45:25.667Z,4.90
2023-02-22T03:48:20.911Z,5.63
2023-02-22T03:51:09.104Z,5.38
2023-02-22T03:53:44.693Z,6.10
2023-02-22T03:56:28.470Z,5.72
2023-02-22T03:59:07.530Z,4.93
2023-02-22T04:01:48.394Z,4.93
2023-02-22T04:04:37.883Z,4.97
2023-02-22T04:07:10.554Z,4.85
2023-02-22T04:09:49.037Z,4.13
2023-02-22T04:12:21.663Z,4.45
2023-02-22T04:15:00.000Z,4.43
2023-02-22T04:17:38.909Z,4.72
2023-02-22T04:20:13.609Z,4.85
2023-02-22T04:22:47.228Z,3.72
2023-02-22T04:25:32.170Z,3.97
2023-02-22T04:28:05.006Z,4.05
2023-02-22T04:30:38.690Z,3.83
2023-02-22T04:33:29.690Z,4.70
2023-02-22T04:36:18.141Z,4.35
2023-02-22T04:39:05.812Z,3.67
2023-02-22T04:41:53.724Z,4.40
2023-02-22T04:44:35.829Z,4.30
2023-02-22T04:47:08.405Z,3.75
2023-02-22T04:49:44.162Z,4.03
2023-02-22T04:52:16.798Z,3.90
2023-02-22T04:54:55.148Z,3.67
2023-02-22T05:00:21.736Z,3.45
2023-02-22T05:02:54.491Z,3.58
2023-02-22T05:05:33.132Z,3.65
2023-02-22T05:08:06.005Z,4.38
2023-02-22T05:10:47.770Z,4.28
2023-02-22T05:13:20.412Z,4.00
2023-02-22T05:15:54.499Z,4.38
2023-02-22T05:21:02.584Z,3.70
2023-02-22T05:23:36.386Z,4.10
2023-02-22T05:26:11.676Z,4.07
2023-02-22T05:28:44.673Z,3.80
2023-02-22T05:31:26.433Z,3.40
2023-02-22T05:34:15.771Z,3.30
2023-02-22T05:36:48.449Z,4.15
2023-02-22T05:39:24.673Z,3.47
2023-02-22T05:41:58.459Z,3.53
2023-02-22T05:44:31.081Z,3.35
2023-02-22T05:47:12.628Z,3.92
2023-02-22T05:49:53.380Z,4.47
2023-02-22T05:52:44.569Z,3.78
2023-02-22T05:55:22.149Z,3.53
2023-02-22T05:57:54.788Z,3.30
2023-02-22T06:00:42.619Z,3.65
2023-02-22T06:06:27.453Z,3.95
2023-02-22T06:09:00.351Z,3.88
2023-02-22T06:11:37.197Z,3.33
2023-02-22T06:14:10.007Z,3.28
2023-02-22T06:16:57.025Z,3.08
2023-02-22T06:19:44.711Z,3.88
2023-02-22T06:22:19.727Z,3.60
2023-02-22T06:24:54.906Z,3.33
2023-02-22T06:27:34.291Z,4.88
2023-02-22T06:30:18.685Z,3.65
2023-02-22T06:33:05.610Z,3.63
2023-02-22T06:35:38.163Z,3.80
2023-02-22T06:38:11.706Z,3.10
2023-02-22T06:40:51.086Z,4.00
2023-02-22T06:43:24.967Z,3.03
2023-02-22T06:46:00.465Z,3.53
2023-02-22T06:48:33.100Z,3.50
2023-02-22T06:51:08.729Z,3.67
2023-02-22T06:53:41.259Z,3.28
2023-02-22T06:56:22.442Z,3.35
2023-02-22T06:58:55.080Z,3.67
2023-02-22T07:01:31.289Z,3.10
2023-02-22T07:04:03.967Z,3.25
2023-02-22T07:06:37.579Z,3.17
2023-02-22T07:09:22.690Z,2.97
2023-02-22T07:11:56.128Z,3.45
2023-02-22T07:14:32.083Z,2.92
2023-02-22T07:17:17.074Z,3.40
2023-02-22T07:19:49.629Z,3.30
2023-02-22T07:22:23.271Z,3.20
2023-02-22T07:24:55.882Z,3.13
2023-02-22T07:27:40.269Z,3.58
2023-02-22T07:30:39.238Z,3.40
2023-02-22T07:33:14.741Z,3.05
2023-02-22T07:35:50.714Z,3.35
2023-02-22T07:38:23.356Z,3.55
2023-02-22T07:41:05.435Z,4.05
2023-02-22T07:43:38.108Z,3.17
2023-02-22T07:46:16.498Z,3.03
2023-02-22T07:48:49.139Z,2.45
2023-02-22T07:51:27.938Z,3.15
2023-02-22T07:54:12.958Z,2.70
2023-02-22T07:57:06.618Z,2.63
2023-02-22T07:59:39.464Z,3.35
2023-02-22T08:02:17.213Z,3.10
2023-02-22T08:04:50.014Z,3.33
2023-02-22T08:07:22.853Z,3.83
2023-02-22T08:10:07.845Z,3.13
2023-02-22T08:12:46.196Z,2.97
2023-02-22T08:15:30.966Z,3.42
2023-02-22T08:18:11.121Z,3.70
2023-02-22T08:20:50.137Z,3.13
2023-02-22T08:23:27.123Z,4.00
2023-02-22T08:26:17.793Z,3.63
2023-02-22T08:28:50.413Z,3.92
2023-02-22T08:31:23.226Z,3.88
2023-02-22T08:33:56.000Z,2.90
2023-02-22T08:36:29.620Z,3.67
2023-02-22T08:39:02.304Z,3.20
2023-02-22T08:41:35.005Z,3.00
2023-02-22T08:44:07.883Z,3.22
2023-02-22T08:46:40.563Z,3.30
2023-02-22T08:49:13.222Z,3.47
2023-02-22T08:51:45.984Z,2.67
2023-02-22T08:54:18.890Z,2.83
2023-02-22T08:56:57.838Z,3.75
2023-02-22T08:59:30.470Z,2.70
2023-02-22T09:02:03.288Z,3.22
2023-02-22T09:04:44.934Z,3.03
2023-02-22T09:07:22.834Z,2.47
2023-02-22T09:09:55.596Z,2.95
2023-02-22T09:12:30.098Z,2.47
2023-02-22T09:15:12.893Z,2.72
2023-02-22T09:17:49.222Z,3.00
2023-02-22T09:20:24.365Z,3.15
2023-02-22T09:22:57.411Z,2.75
2023-02-22T09:28:18.718Z,4.80
2023-02-22T09:30:51.374Z,3.25
2023-02-22T09:33:26.056Z,2.95
2023-02-22T09:36:00.862Z,3.47
2023-02-22T09:38:33.576Z,3.17
2023-02-22T09:41:20.457Z,3.22
2023-02-22T09:44:24.096Z,3.10
2023-02-22T09:47:18.235Z,3.70
2023-02-22T09:50:16.087Z,2.97
2023-02-22T09:53:14.347Z,3.58
2023-02-22T09:56:25.673Z,3.95
2023-02-22T09:59:23.499Z,2.95
2023-02-22T10:02:37.003Z,3.50
2023-02-22T10:05:27.923Z,3.03
2023-02-22T10:08:19.069Z,3.13
2023-02-22T10:11:11.973Z,2.60
2023-02-22T10:14:09.436Z,3.78
2023-02-22T10:17:11.982Z,4.10
2023-02-22T10:19:54.939Z,3.63
2023-02-22T10:22:48.733Z,3.15
2023-02-22T10:25:34.994Z,3.83
2023-02-22T10:28:20.608Z,3.80
2023-02-22T10:31:05.863Z,3.67
2023-02-22T10:33:47.814Z,5.13
2023-02-22T10:36:23.686Z,3.83
2023-02-22T10:39:11.573Z,3.25
2023-02-22T10:41:53.024Z,3.55
2023-02-22T10:44:25.645Z,3.88
2023-02-22T10:47:02.309Z,3.92
2023-02-22T10:49:43.788Z,3.85
2023-02-22T10:52:19.237Z,3.53
2023-02-22T10:55:00.983Z,3.42
2023-02-22T10:57:39.084Z,3.90
2023-02-22T11:00:30.557Z,3.40
2023-02-22T11:03:24.602Z,4.28
2023-02-22T11:06:19.328Z,4.32
2023-02-22T11:11:29.197Z,4.05
2023-02-22T11:14:03.564Z,3.20
2023-02-22T11:16:53.073Z,4.13
2023-02-22T11:19:32.859Z,4.28
2023-02-22T11:22:05.389Z,3.45
2023-02-22T11:25:07.661Z,3.58
2023-02-22T11:27:47.146Z,3.28
2023-02-22T11:30:30.164Z,3.70
2023-02-22T11:33:24.217Z,3.17
2023-02-22T11:36:00.789Z,3.50
2023-02-22T11:38:53.991Z,3.10
2023-02-22T11:41:30.797Z,4.72
2023-02-22T11:44:33.125Z,4.28
2023-02-22T11:47:12.291Z,3.30
2023-02-22T11:49:45.978Z,3.50
2023-02-22T11:52:34.630Z,3.15
2023-02-22T11:55:45.015Z,3.58
2023-02-22T11:58:32.644Z,3.20
2023-02-22T12:01:17.600Z,3.13
2023-02-22T12:04:10.454Z,3.80
2023-02-22T12:07:32.932Z,3.60
2023-02-22T12:11:03.872Z,4.18
2023-02-22T12:13:52.728Z,2.80
2023-02-22T12:16:44.285Z,4.72
2023-02-22T12:19:28.780Z,3.75
2023-02-22T12:22:21.313Z,3.30
2023-02-22T12:25:10.363Z,3.67
2023-02-22T12:28:23.717Z,3.25
2023-02-22T12:31:23.230Z,3.05
2023-02-22T12:34:11.829Z,2.97
2023-02-22T12:36:53.922Z,3.25
2023-02-22T12:39:53.138Z,4.10
2023-02-22T12:42:44.288Z,2.65
2023-02-22T12:45:51.548Z,2.60
2023-02-22T12:48:36.036Z,3.20
2023-02-22T12:51:41.128Z,3.08
2023-02-22T12:57:20.176Z,2.50
2023-02-22T13:00:02.346Z,3.05
2023-02-22T13:03:06.355Z,3.20
2023-02-22T13:05:41.432Z,3.55
2023-02-22T13:08:22.836Z,3.05
2023-02-22T13:11:29.368Z,3.60
2023-02-22T13:14:36.109Z,2.55
2023-02-22T13:17:23.882Z,2.58
2023-02-22T13:20:24.069Z,2.70
2023-02-22T13:23:08.699Z,2.88
2023-02-22T13:26:15.213Z,2.38
2023-02-22T13:29:14.001Z,2.45
2023-02-22T13:32:18.560Z,2.72
2023-02-22T13:35:23.588Z,2.78
2023-02-22T13:41:26.790Z,2.92
2023-02-22T13:44:31.901Z,2.72
2023-02-22T13:47:31.674Z,2.95
2023-02-22T13:50:52.012Z,2.60
2023-02-22T13:53:39.822Z,2.28
2023-02-22T13:56:15.832Z,2.72
2023-02-22T13:59:14.936Z,2.50
2023-02-22T14:01:52.882Z,2.60
2023-02-22T14:04:28.421Z,2.65
2023-02-22T14:07:25.382Z,2.50
2023-02-22T14:10:01.853Z,2.67
2023-02-22T14:12:50.228Z,2.72
2023-02-22T14:15:30.697Z,2.42
2023-02-22T14:18:07.478Z,3.47
2023-02-22T14:20:40.535Z,3.08
2023-02-22T14:24:09.539Z,2.40
2023-02-22T14:27:03.613Z,2.95
2023-02-22T14:29:36.526Z,2.70
2023-02-22T14:32:11.075Z,2.08
2023-02-22T14:35:26.473Z,2.78
2023-02-22T14:38:30.460Z,2.25
2023-02-22T14:41:09.262Z,2.63
2023-02-22T14:43:43.245Z,2.40
2023-02-22T14:46:40.601Z,2.83
2023-02-22T14:49:23.101Z,2.42
2023-02-22T14:52:14.258Z,3.20
2023-02-22T15:02:13.808Z,3.03
2023-02-22T15:05:14.840Z,2.33
2023-02-22T15:08:10.100Z,2.40
2023-02-22T15:10:55.374Z,2.70
2023-02-22T15:13:33.191Z,2.47
2023-02-22T15:16:15.291Z,3.58
2023-02-22T15:19:09.165Z,2.17
2023-02-22T15:22:01.111Z,2.57
2023-02-22T15:24:37.279Z,2.45
2023-02-22T15:30:42.067Z,3.20
2023-02-22T15:33:24.651Z,2.88
2023-02-22T15:35:58.296Z,2.60
2023-02-22T15:38:31.018Z,2.65
2023-02-22T15:41:21.529Z,2.28
2023-02-22T15:44:23.927Z,2.05
2023-02-22T15:46:58.423Z,2.40
2023-02-22T15:52:23.959Z,2.65
2023-02-22T15:54:56.686Z,2.65
2023-02-22T15:57:41.753Z,2.85
2023-02-22T16:04:59.544Z,2.45
2023-02-22T16:18:01.386Z,3.80
2023-02-22T16:23:29.480Z,3.05
2023-02-22T16:29:26.878Z,3.38
2023-02-22T16:31:59.956Z,2.90
2023-02-22T16:34:48.221Z,2.63
2023-02-22T16:37:23.287Z,3.58
2023-02-22T16:42:45.746Z,2.65
2023-02-22T16:48:46.804Z,3.50
2023-02-22T16:51:25.525Z,3.53
2023-02-22T16:53:58.535Z,3.38
2023-02-22T16:56:33.026Z,3.00
2023-02-22T16:59:14.814Z,3.53
2023-02-22T17:01:47.679Z,3.38
2023-02-22T17:04:32.472Z,4.10
2023-02-22T17:07:05.533Z,4.53
2023-02-22T17:09:39.482Z,3.10
2023-02-22T17:12:18.525Z,3.67
2023-02-22T17:14:51.248Z,2.85
2023-02-22T17:17:32.737Z,3.47
2023-02-22T17:20:11.893Z,3.17
2023-02-22T17:22:48.426Z,3.10
2023-02-22T17:25:37.775Z,3.55
2023-02-22T17:35:53.686Z,3.55
2023-02-22T17:38:50.261Z,3.08
2023-02-22T17:41:23.027Z,3.50
2023-02-22T17:44:03.997Z,3.60
2023-02-22T17:46:37.734Z,4.30
2023-02-22T17:49:14.159Z,3.95
2023-02-22T17:51:49.631Z,4.07
2023-02-22T17:54:23.119Z,3.83
2023-02-22T17:57:02.010Z,4.30
2023-02-22T17:59:40.685Z,4.00
2023-02-22T18:02:15.401Z,4.57
2023-02-22T18:04:48.273Z,4.20
2023-02-22T18:07:20.940Z,4.10
2023-02-22T18:09:54.633Z,4.03
2023-02-22T18:12:33.481Z,4.30
2023-02-22T18:15:17.893Z,3.97
2023-02-22T18:23:44.995Z,4.95
2023-02-22T18:26:21.006Z,4.53
2023-02-22T18:28:53.850Z,4.82
2023-02-22T18:31:26.793Z,4.40
2023-02-22T18:33:59.389Z,4.47
2023-02-22T18:36:32.449Z,4.05
2023-02-22T18:42:07.707Z,4.40
2023-02-22T18:44:42.890Z,4.88
2023-02-22T18:47:15.470Z,4.95
2023-02-22T18:49:48.960Z,4.70
2023-02-22T18:52:21.816Z,5.03
2023-02-22T18:55:15.254Z,7.28
2023-02-22T18:57:55.717Z,5.30
2023-02-22T19:00:43.950Z,5.30
2023-02-22T19:03:16.628Z,5.85
2023-02-22T19:05:52.149Z,6.65
2023-02-22T19:08:25.070Z,6.40
2023-02-22T19:11:08.587Z,6.45
2023-02-22T19:13:41.264Z,6.10
2023-02-22T19:16:22.963Z,6.50
2023-02-22T19:18:58.119Z,6.65
2023-02-22T19:21:56.367Z,6.82
2023-02-22T19:24:29.062Z,6.20
2023-02-22T19:27:01.745Z,6.82
2023-02-22T19:29:37.977Z,6.13
2023-02-22T19:32:17.574Z,7.57
2023-02-22T19:35:02.123Z,7.57
2023-02-22T19:37:47.045Z,6.78
2023-02-22T19:40:22.014Z,7.13
2023-02-22T19:42:57.861Z,6.70
2023-02-22T19:45:30.483Z,6.70
2023-02-22T19:48:03.227Z,7.28
2023-02-22T19:50:35.967Z,7.80
2023-02-22T19:53:13.950Z,7.72
2023-02-22T19:55:46.596Z,8.32
2023-02-22T19:58:19.317Z,7.40
2023-02-22T20:00:52.041Z,7.40
2023-02-22T20:03:26.648Z,8.32
2023-02-22T20:05:59.391Z,8.75
2023-02-22T20:08:31.867Z,8.23
2023-02-22T20:11:07.038Z,8.10
2023-02-22T20:13:41.232Z,7.93
2023-02-22T20:18:50.773Z,8.15
2023-02-22T20:21:32.901Z,8.90
2023-02-22T20:24:09.284Z,8.27
2023-02-22T20:26:44.133Z,8.27
2023-02-22T20:29:17.149Z,8.82
2023-02-22T20:31:53.837Z,9.82
2023-02-22T20:34:32.490Z,8.70
2023-02-22T20:37:05.116Z,8.45
2023-02-22T20:39:37.866Z,8.23
2023-02-22T20:42:11.767Z,8.65
2023-02-22T20:44:45.212Z,9.63
2023-02-22T20:47:17.919Z,9.55
2023-02-22T20:49:50.612Z,8.98
2023-02-22T20:52:23.389Z,8.50
2023-02-22T20:54:57.627Z,8.77
2023-02-22T20:57:36.082Z,9.15
2023-02-22T21:00:18.199Z,9.30
2023-02-22T21:02:51.120Z,9.05
2023-02-22T21:05:24.097Z,8.35
2023-02-22T21:07:58.492Z,8.27
2023-02-22T21:10:43.430Z,7.80
2023-02-22T21:13:15.996Z,9.05
2023-02-22T21:15:49.270Z,9.10
2023-02-22T21:18:24.963Z,9.57
2023-02-22T21:21:12.385Z,8.48
2023-02-22T21:23:51.246Z,8.15
2023-02-22T21:26:27.522Z,7.88
2023-02-22T21:29:05.369Z,8.50
2023-02-22T21:31:38.228Z,8.70
2023-02-22T21:34:13.616Z,8.40
2023-02-22T21:36:46.713Z,7.57
2023-02-22T21:39:19.508Z,8.40
2023-02-22T21:41:52.515Z,8.98
2023-02-22T21:44:25.177Z,8.70
2023-02-22T21:46:57.840Z,8.13
2023-02-22T21:49:30.738Z,8.18
2023-02-22T21:52:04.490Z,8.25
2023-02-22T21:54:37.151Z,7.88
2023-02-22T21:57:09.742Z,8.20
2023-02-22T21:59:42.381Z,8.68
2023-02-22T22:02:14.972Z,8.43
2023-02-22T22:04:47.558Z,9.10
2023-02-22T22:07:20.609Z,8.60
2023-02-22T22:09:56.648Z,7.68
2023-02-22T22:12:38.791Z,7.53
2023-02-22T22:15:16.747Z,7.07
2023-02-22T22:17:49.371Z,8.55
2023-02-22T22:20:21.948Z,8.02
2023-02-22T22:22:55.109Z,8.15
2023-02-22T22:25:28.715Z,7.67
2023-02-22T22:28:01.415Z,7.53
2023-02-22T22:30:37.029Z,8.32
2023-02-22T22:33:12.664Z,8.23
2023-02-22T22:35:46.235Z,7.25
2023-02-22T22:38:20.801Z,7.75
2023-02-22T22:40:53.919Z,8.35
2023-02-22T22:43:30.339Z,7.25
2023-02-22T22:46:06.418Z,8.20
2023-02-22T22:48:39.888Z,7.65
2023-02-22T22:51:20.349Z,6.43
2023-02-22T22:53:54.803Z,6.82
2023-02-22T22:59:09.597Z,7.60
2023-02-22T23:01:46.710Z,6.00
2023-02-22T23:04:19.312Z,6.75
2023-02-22T23:06:54.375Z,6.50
2023-02-22T23:09:31.617Z,6.18
2023-02-22T23:12:17.794Z,6.63
2023-02-22T23:14:52.022Z,5.93
2023-02-22T23:17:31.180Z,6.13
2023-02-22T23:20:11.101Z,6.43
2023-02-22T23:22:47.218Z,6.32
2023-02-22T23:25:20.915Z,6.22
2023-02-22T23:27:54.027Z,6.13
2023-02-22T23:30:27.360Z,7.65
2023-02-22T23:33:01.260Z,6.35
2023-02-22T23:35:33.897Z,6.15
2023-02-22T23:38:08.311Z,6.10
2023-02-22T23:40:42.493Z,6.45
2023-02-22T23:43:16.938Z,7.13
2023-02-22T23:45:57.326Z,6.97
2023-02-22T23:48:30.213Z,6.20
2023-02-22T23:51:09.620Z,6.22
2023-02-22T23:53:55.534Z,6.90
2023-02-22T23:56:28.515Z,6.00
2023-02-22T23:59:08.104Z,6.75
